Time;durP1;ratioP1;P1;durP2;ratioP2;P2;SDS_P1;SDS_P2;PMS_P1;PMS_P2;Temp;Humidity;BMP_temperature;BMP_pressure;BME280_temperature;BME280_humidity;BME280_pressure;Samples;Min_cycle;Max_cycle;Signal;HPM_P1;HPM_P2
2023/11/21 00:01:35;;;;;;;11.38;5.33;;;;;;;-0.19;71.20;99929.42;1675128;84;21035;-72
2023/11/21 00:04:04;;;;;;;9.85;5.53;;;;;;;-0.23;71.31;99934.23;1675164;84;21039;-73
2023/11/21 00:06:35;;;;;;;11.45;6.00;;;;;;;-0.24;71.53;99935.72;1675061;84;21083;-73
2023/11/21 00:09:21;;;;;;;12.03;5.95;;;;;;;-0.20;71.61;99937.98;1674680;85;21075;-73
2023/11/21 00:11:50;;;;;;;11.48;6.03;;;;;;;-0.25;71.54;99932.17;1714951;83;21022;-73
2023/11/21 00:14:19;;;;;;;11.05;6.08;;;;;;;-0.28;71.72;99934.30;1715048;82;21033;-72
2023/11/21 00:16:48;;;;;;;11.97;5.85;;;;;;;-0.30;71.80;99939.83;1714922;82;21113;-72
2023/11/21 00:19:17;;;;;;;10.50;5.47;;;;;;;-0.32;71.95;99935.92;1715109;82;21074;-72
2023/11/21 00:21:45;;;;;;;11.95;6.00;;;;;;;-0.32;72.02;99935.08;1715040;84;21045;-72
2023/11/21 00:24:14;;;;;;;12.37;6.80;;;;;;;-0.35;72.05;99932.66;1714974;82;21042;-71
2023/11/21 00:26:43;;;;;;;13.95;6.30;;;;;;;-0.36;72.20;99931.81;1715039;82;21485;-72
2023/11/21 00:29:13;;;;;;;12.70;6.37;;;;;;;-0.36;72.24;99933.66;1714968;82;21037;-71
2023/11/21 00:31:44;;;;;;;11.95;6.08;;;;;;;-0.39;72.28;99924.52;1714842;82;21489;-73
2023/11/21 00:34:13;;;;;;;11.85;6.45;;;;;;;-0.43;72.41;99933.85;1715041;84;21056;-71
2023/11/21 00:36:42;;;;;;;11.05;6.30;;;;;;;-0.48;72.58;99943.69;1714749;82;21465;-73
2023/11/21 00:39:11;;;;;;;14.18;7.00;;;;;;;-0.48;72.76;99949.56;1714819;82;21029;-73
2023/11/21 00:41:41;;;;;;;14.45;6.30;;;;;;;-0.52;72.80;99957.06;1714894;82;21539;-72
2023/11/21 00:44:11;;;;;;;12.65;5.95;;;;;;;-0.53;73.01;99962.58;1715006;82;21016;-73
2023/11/21 00:46:40;;;;;;;13.10;6.65;;;;;;;-0.55;73.00;99969.94;1714965;84;21080;-72
2023/11/21 00:49:09;;;;;;;13.58;6.72;;;;;;;-0.61;73.02;99974.53;1714804;82;21457;-71
2023/11/21 00:51:39;;;;;;;12.78;6.35;;;;;;;-0.64;73.18;99971.62;1714954;84;21045;-72
2023/11/21 00:54:08;;;;;;;12.93;6.35;;;;;;;-0.63;73.42;99964.39;1714842;82;21096;-72
2023/11/21 00:56:38;;;;;;;12.70;6.22;;;;;;;-0.61;73.60;99957.89;1715063;84;21045;-71
2023/11/21 00:59:07;;;;;;;12.90;6.55;;;;;;;-0.60;73.71;99966.32;1714861;82;21052;-71
2023/11/21 01:01:36;;;;;;;9.93;5.72;;;;;;;-0.57;73.79;99963.84;1715030;83;21114;-72
2023/11/21 01:04:09;;;;;;;12.43;6.72;;;;;;;-0.57;73.87;99967.39;1680124;85;21087;-72
2023/11/21 01:06:38;;;;;;;11.15;6.10;;;;;;;-0.56;73.95;99981.20;1714876;82;21065;-72
2023/11/21 01:09:08;;;;;;;15.08;6.62;;;;;;;-0.55;73.96;99973.98;1715107;84;21029;-72
2023/11/21 01:11:37;;;;;;;15.75;6.50;;;;;;;-0.54;73.98;99972.98;1726058;83;21135;-72
2023/11/21 01:14:08;;;;;;;13.22;6.97;;;;;;;-0.52;74.01;99967.83;1684778;85;21035;-73
2023/11/21 01:16:37;;;;;;;13.35;6.80;;;;;;;-0.52;74.00;99962.45;1719427;82;21096;-73
2023/11/21 01:19:06;;;;;;;16.95;6.60;;;;;;;-0.51;74.00;99971.37;1719556;83;21065;-72
2023/11/21 01:21:36;;;;;;;11.05;6.62;;;;;;;-0.51;74.00;99968.67;1699102;83;21473;-72
2023/11/21 01:24:07;;;;;;;15.08;6.28;;;;;;;-0.53;73.94;99967.47;1719999;83;21013;-71
2023/11/21 01:26:36;;;;;;;14.20;6.25;;;;;;;-0.54;74.01;99973.84;1684751;85;21038;-72
2023/11/21 01:29:05;;;;;;;15.30;6.95;;;;;;;-0.56;74.04;99981.69;1719605;83;21049;-74
2023/11/21 01:31:34;;;;;;;15.93;7.37;;;;;;;-0.60;74.21;99980.27;1719578;82;21107;-72
2023/11/21 01:34:03;;;;;;;12.95;6.42;;;;;;;-0.61;74.31;99980.76;1684741;85;21063;-72
2023/11/21 01:36:35;;;;;;;15.78;7.28;;;;;;;-0.63;74.48;99977.84;1719617;82;21060;-73
2023/11/21 01:39:08;;;;;;;15.43;6.92;;;;;;;-0.62;74.52;99985.78;1719575;83;21041;-73
2023/11/21 01:41:33;;;;;;;13.93;6.60;;;;;;;-0.61;74.61;99988.83;1719132;83;21081;-72
2023/11/21 01:44:07;;;;;;;14.07;6.22;;;;;;;-0.60;74.62;99986.50;1684773;85;21545;-72
2023/11/21 01:46:35;;;;;;;14.90;6.28;;;;;;;-0.57;74.65;99985.37;1719373;82;21489;-71
2023/11/21 01:49:05;;;;;;;16.80;6.78;;;;;;;-0.58;74.61;99987.21;1699596;83;21438;-74
2023/11/21 01:51:34;;;;;;;14.00;6.58;;;;;;;-0.57;74.52;99991.61;1684745;85;21604;-73
2023/11/21 01:54:06;;;;;;;15.30;6.90;;;;;;;-0.60;74.49;99986.50;1719537;83;21037;-72
2023/11/21 01:56:37;;;;;;;14.95;7.58;;;;;;;-0.62;74.51;99989.81;1683584;85;21039;-73
2023/11/21 01:59:07;;;;;;;16.10;7.28;;;;;;;-0.62;74.46;99994.34;1719378;82;21029;-73
2023/11/21 02:01:36;;;;;;;14.75;6.90;;;;;;;-0.64;74.46;100003.90;1684740;85;21462;-72
2023/11/21 02:04:05;;;;;;;13.98;7.00;;;;;;;-0.68;74.59;99997.05;1676971;84;21035;-72
2023/11/21 02:06:34;;;;;;;13.75;6.50;;;;;;;-0.70;74.73;99997.69;1719418;82;21029;-73
2023/11/21 02:09:04;;;;;;;13.85;6.60;;;;;;;-0.71;74.82;99994.14;1719665;82;21485;-72
2023/11/21 02:11:34;;;;;;;14.53;6.95;;;;;;;-0.71;74.89;99993.29;1719335;82;21147;-72
2023/11/21 02:14:07;;;;;;;17.00;6.95;;;;;;;-0.70;74.96;99994.50;1719419;82;21069;-72
2023/11/21 02:16:35;;;;;;;12.18;6.40;;;;;;;-0.69;74.97;99994.86;1685536;85;21074;-72
2023/11/21 02:19:04;;;;;;;16.60;6.95;;;;;;;-0.68;74.90;99996.56;1677015;84;21058;-73
2023/11/21 02:21:33;;;;;;;15.53;7.37;;;;;;;-0.67;74.90;100010.86;1689749;84;21061;-72
2023/11/21 02:24:02;;;;;;;17.75;7.80;;;;;;;-0.67;74.95;100008.17;1695077;84;21058;-72
2023/11/21 02:26:30;;;;;;;18.07;7.50;;;;;;;-0.67;74.87;100010.86;1692238;83;21051;-73
2023/11/21 02:29:00;;;;;;;16.12;7.83;;;;;;;-0.73;74.92;100001.98;1684832;85;21058;-71
2023/11/21 02:31:30;;;;;;;16.87;8.00;;;;;;;-0.76;75.03;100003.61;1684798;84;21435;-72
2023/11/21 02:33:58;;;;;;;13.72;6.92;;;;;;;-0.76;75.20;100008.98;1684963;85;21027;-73
2023/11/21 02:36:28;;;;;;;11.43;6.12;;;;;;;-0.76;75.31;100008.98;1684881;84;21086;-72
2023/11/21 02:38:58;;;;;;;13.90;6.95;;;;;;;-0.76;75.25;100015.22;1684905;85;21065;-72
2023/11/21 02:41:26;;;;;;;16.02;7.08;;;;;;;-0.75;75.24;100017.41;1684774;85;21062;-71
2023/11/21 02:43:55;;;;;;;14.68;7.67;;;;;;;-0.76;75.30;100011.18;1685021;85;21034;-72
2023/11/21 02:46:24;;;;;;;15.68;8.70;;;;;;;-0.77;75.30;100022.93;1690047;85;21484;-72
2023/11/21 02:48:58;;;;;;;14.20;6.90;;;;;;;-0.78;75.26;100024.41;1688242;85;21446;-72
2023/11/21 02:51:24;;;;;;;19.50;10.18;;;;;;;-0.81;75.24;100028.71;1680158;85;21067;-73
2023/11/21 02:53:52;;;;;;;13.32;7.05;;;;;;;-0.86;75.29;100029.61;1686487;84;21513;-72
2023/11/21 02:56:22;;;;;;;17.05;7.25;;;;;;;-0.91;75.38;100038.08;1688031;85;21010;-73
2023/11/21 02:58:50;;;;;;;14.30;6.60;;;;;;;-0.99;75.42;100044.12;1687985;85;21485;-73
2023/11/21 03:01:21;;;;;;;18.25;7.08;;;;;;;-1.07;75.57;100048.45;1688055;84;21063;-73
2023/11/21 03:03:55;;;;;;;14.20;7.30;;;;;;;-1.17;75.78;100037.64;1686991;85;21002;-74
2023/11/21 03:06:23;;;;;;;13.88;6.62;;;;;;;-1.23;76.06;100034.14;1684845;85;21003;-72
2023/11/21 03:08:52;;;;;;;13.38;6.40;;;;;;;-1.25;76.21;100040.13;1684803;84;21050;-72
2023/11/21 03:11:21;;;;;;;14.18;6.67;;;;;;;-1.28;76.34;100035.02;1684964;85;21058;-71
2023/11/21 03:13:51;;;;;;;13.93;6.78;;;;;;;-1.28;76.51;100030.99;1684972;85;21074;-72
2023/11/21 03:16:20;;;;;;;11.90;6.10;;;;;;;-1.27;76.58;100029.16;1684829;84;21015;-71
2023/11/21 03:18:49;;;;;;;11.97;6.17;;;;;;;-1.29;76.67;100034.66;1684826;85;21070;-72
2023/11/21 03:21:18;;;;;;;15.40;6.78;;;;;;;-1.33;76.69;100031.36;1684750;85;21060;-72
2023/11/21 03:23:46;;;;;;;16.00;7.22;;;;;;;-1.35;76.76;100027.09;1685047;85;21035;-72
2023/11/21 03:26:15;;;;;;;18.00;8.13;;;;;;;-1.37;76.79;100026.38;1684810;85;21062;-71
2023/11/21 03:28:43;;;;;;;14.73;7.10;;;;;;;-1.37;76.83;100022.34;1684907;85;21106;-71
2023/11/21 03:31:13;;;;;;;15.50;7.50;;;;;;;-1.39;76.87;100025.65;1684843;85;21027;-71
2023/11/21 03:33:42;;;;;;;22.60;11.73;;;;;;;-1.41;76.87;100026.27;1719608;82;21065;-73
2023/11/21 03:36:12;;;;;;;26.25;12.50;;;;;;;-1.43;76.90;100034.47;1719649;83;21017;-71
2023/11/21 03:38:41;;;;;;;19.32;9.03;;;;;;;-1.44;77.06;100032.77;1719504;83;21108;-71
2023/11/21 03:41:10;;;;;;;18.57;10.35;;;;;;;-1.45;76.99;100035.58;1687536;84;21058;-71
2023/11/21 03:43:40;;;;;;;23.80;11.70;;;;;;;-1.48;77.08;100035.84;1719753;83;21025;-72
2023/11/21 03:46:10;;;;;;;23.02;12.15;;;;;;;-1.48;77.17;100037.18;1719429;82;21501;-72
2023/11/21 03:48:42;;;;;;;25.02;12.05;;;;;;;-1.50;77.22;100036.45;1719593;83;21056;-72
2023/11/21 03:51:11;;;;;;;19.80;11.43;;;;;;;-1.52;77.28;100037.08;1719686;82;22017;-73
2023/11/21 03:53:40;;;;;;;16.77;9.08;;;;;;;-1.53;77.35;100042.09;1719529;83;21041;-73
2023/11/21 03:56:11;;;;;;;16.85;8.13;;;;;;;-1.55;77.42;100046.74;1719623;83;21084;-72
2023/11/21 03:58:41;;;;;;;16.02;7.42;;;;;;;-1.54;77.47;100039.90;1686055;85;21042;-71
2023/11/21 04:01:11;;;;;;;17.73;7.33;;;;;;;-1.55;77.44;100052.11;1676971;85;21055;-73
2023/11/21 04:03:42;;;;;;;15.88;6.80;;;;;;;-1.60;77.45;100056.04;1672365;85;21047;-71
2023/11/21 04:06:11;;;;;;;17.05;7.72;;;;;;;-1.62;77.58;100056.66;1672262;86;21055;-71
2023/11/21 04:08:40;;;;;;;19.15;7.83;;;;;;;-1.64;77.60;100058.62;1672091;86;21474;-71
2023/11/21 04:11:10;;;;;;;18.17;8.28;;;;;;;-1.68;77.59;100059.86;1670789;86;21133;-72
2023/11/21 04:13:52;;;;;;;18.77;8.60;;;;;;;-1.68;77.82;100065.72;1664945;86;21019;-72
2023/11/21 04:16:24;;;;;;;19.85;9.05;;;;;;;-1.71;77.91;100058.77;1664659;85;21487;-72
2023/11/21 04:18:53;;;;;;;19.75;9.00;;;;;;;-1.74;77.98;100068.42;1664629;85;21087;-72
2023/11/21 04:21:22;;;;;;;26.70;11.38;;;;;;;-1.77;78.06;100078.08;1664717;85;21052;-71
2023/11/21 04:23:51;;;;;;;28.52;12.28;;;;;;;-1.78;78.16;100069.66;1664514;86;21016;-71
2023/11/21 04:26:20;;;;;;;28.83;12.15;;;;;;;-1.75;78.21;100063.19;1664763;86;21071;-72
2023/11/21 04:28:48;;;;;;;19.40;9.23;;;;;;;-1.74;78.21;100059.52;1664588;86;21035;-73
2023/11/21 04:31:17;;;;;;;17.87;8.38;;;;;;;-1.78;78.23;100068.31;1664754;86;21039;-71
2023/11/21 04:33:46;;;;;;;18.07;8.40;;;;;;;-1.80;78.27;100067.59;1664792;86;21023;-71
2023/11/21 04:36:15;;;;;;;15.65;7.47;;;;;;;-1.84;78.34;100062.11;1664739;85;21047;-71
2023/11/21 04:38:43;;;;;;;19.23;9.25;;;;;;;-1.85;78.49;100056.38;1665052;86;21480;-71
2023/11/21 04:41:12;;;;;;;22.05;9.13;;;;;;;-1.85;78.64;100062.24;1664681;86;21040;-72
2023/11/21 04:43:42;;;;;;;27.48;11.45;;;;;;;-1.82;78.94;100066.02;1664665;85;21027;-72
2023/11/21 04:46:11;;;;;;;21.50;9.83;;;;;;;-1.78;78.99;100064.29;1664785;85;21048;-71
2023/11/21 04:48:40;;;;;;;21.02;10.43;;;;;;;-1.79;78.84;100067.95;1664626;86;21043;-73
2023/11/21 04:51:12;;;;;;;30.70;11.97;;;;;;;-1.81;78.80;100067.72;1664522;86;21039;-72
2023/11/21 04:53:41;;;;;;;27.17;12.53;;;;;;;-1.82;78.85;100076.27;1664765;86;21047;-71
2023/11/21 04:56:10;;;;;;;30.25;13.18;;;;;;;-1.83;78.99;100083.95;1652841;86;21059;-72
2023/11/21 04:58:39;;;;;;;23.52;11.55;;;;;;;-1.83;79.02;100092.02;1664595;86;21467;-72
2023/11/21 05:01:10;;;;;;;22.77;10.68;;;;;;;-1.82;79.04;100078.09;1677206;84;21031;-73
2023/11/21 05:03:43;;;;;;;20.70;10.28;;;;;;;-1.85;78.96;100083.23;1677208;85;21019;-72
2023/11/21 05:06:18;;;;;;;25.35;10.15;;;;;;;-1.91;78.91;100083.73;1677216;84;21035;-73
2023/11/21 05:08:54;;;;;;;21.02;9.30;;;;;;;-1.95;79.15;100092.53;1677252;85;21022;-72
2023/11/21 05:11:28;;;;;;;19.75;8.48;;;;;;;-1.95;79.38;100098.39;1677164;85;20995;-72
2023/11/21 05:13:58;;;;;;;18.98;8.88;;;;;;;-1.97;79.55;100103.00;1677191;85;21089;-73
2023/11/21 05:16:30;;;;;;;17.10;8.60;;;;;;;-2.00;79.58;100119.36;1677390;85;21043;-71
2023/11/21 05:19:00;;;;;;;17.57;8.95;;;;;;;-2.04;79.80;100120.58;1677336;85;21007;-72
2023/11/21 05:21:34;;;;;;;24.27;9.75;;;;;;;-2.03;79.93;100118.27;1677349;84;21039;-72
2023/11/21 05:24:07;;;;;;;22.48;9.33;;;;;;;-2.02;80.01;100114.11;1677313;84;21501;-72
2023/11/21 05:26:38;;;;;;;25.35;10.60;;;;;;;-2.00;80.10;100116.67;1677401;85;21504;-70
2023/11/21 05:29:10;;;;;;;27.58;11.53;;;;;;;-1.96;80.23;100118.13;1677315;84;21031;-73
2023/11/21 05:31:39;;;;;;;28.95;11.28;;;;;;;-1.93;80.28;100121.45;1677177;85;21453;-72
2023/11/21 05:34:09;;;;;;;28.12;12.82;;;;;;;-1.89;80.31;100138.16;1677294;85;21059;-72
2023/11/21 05:36:38;;;;;;;32.33;13.95;;;;;;;-1.89;80.28;100149.39;1677154;85;21103;-72
2023/11/21 05:39:07;;;;;;;35.38;15.75;;;;;;;-1.89;80.29;100155.61;1677182;85;21058;-72
2023/11/21 05:41:36;;;;;;;36.95;15.80;;;;;;;-1.88;80.36;100147.92;1677147;85;21516;-72
2023/11/21 05:44:07;;;;;;;36.48;14.93;;;;;;;-1.86;80.53;100152.67;1677228;84;21485;-73
2023/11/21 05:46:35;;;;;;;39.20;16.32;;;;;;;-1.82;80.71;100153.28;1677130;84;21063;-73
2023/11/21 05:49:05;;;;;;;38.55;17.23;;;;;;;-1.75;80.88;100145.94;1677421;85;21080;-72
2023/11/21 05:51:34;;;;;;;33.80;15.45;;;;;;;-1.71;80.89;100155.45;1677061;84;21503;-72
2023/11/21 05:54:04;;;;;;;39.27;14.65;;;;;;;-1.70;80.84;100166.56;1677277;85;21058;-72
2023/11/21 05:56:33;;;;;;;33.95;14.98;;;;;;;-1.68;80.92;100174.49;1677169;85;21067;-72
2023/11/21 05:59:03;;;;;;;36.08;15.38;;;;;;;-1.69;80.97;100166.92;1677146;85;21043;-72
2023/11/21 06:01:32;;;;;;;51.65;20.90;;;;;;;-1.69;81.05;100164.23;1677096;84;21091;-72
2023/11/21 06:04:01;;;;;;;42.08;18.80;;;;;;;-1.69;81.15;100161.55;1677297;85;21047;-72
2023/11/21 06:06:31;;;;;;;44.53;18.82;;;;;;;-1.66;81.26;100158.61;1677270;85;21055;-72
2023/11/21 06:09:00;;;;;;;44.38;18.82;;;;;;;-1.63;81.39;100160.20;1677321;85;21117;-73
2023/11/21 06:11:29;;;;;;;42.73;19.02;;;;;;;-1.57;81.55;100162.37;1677207;85;21123;-73
2023/11/21 06:13:58;;;;;;;45.23;21.00;;;;;;;-1.52;81.59;100154.80;1683032;84;21431;-72
2023/11/21 06:16:27;;;;;;;43.17;16.87;;;;;;;-1.48;81.69;100151.36;1684902;84;21056;-71
2023/11/21 06:18:56;;;;;;;43.02;17.12;;;;;;;-1.44;81.68;100156.35;1719617;83;21037;-72
2023/11/21 06:21:25;;;;;;;39.75;17.07;;;;;;;-1.44;81.70;100160.38;1719484;83;21013;-74
2023/11/21 06:23:56;;;;;;;40.20;17.00;;;;;;;-1.38;81.89;100153.65;1719606;83;21065;-72
2023/11/21 06:26:25;;;;;;;40.08;17.07;;;;;;;-1.32;81.93;100162.55;1719510;83;21069;-73
2023/11/21 06:28:54;;;;;;;37.90;16.45;;;;;;;-1.26;81.97;100167.92;1719704;83;21060;-71
2023/11/21 06:31:23;;;;;;;40.43;15.03;;;;;;;-1.20;82.08;100169.61;1719430;83;21457;-72
2023/11/21 06:33:54;;;;;;;34.60;15.32;;;;;;;-1.17;82.03;100165.33;1719601;82;21057;-71
2023/11/21 06:36:22;;;;;;;40.50;19.00;;;;;;;-1.12;81.94;100165.78;1699856;83;21104;-71
2023/11/21 06:38:51;;;;;;;37.85;14.50;;;;;;;-1.09;81.87;100168.22;1719534;83;21057;-72
2023/11/21 06:41:23;;;;;;;37.00;14.75;;;;;;;-1.05;81.93;100160.75;1719415;82;21033;-74
2023/11/21 06:43:54;;;;;;;34.45;14.35;;;;;;;-1.00;81.84;100167.44;1719742;83;21205;-74
2023/11/21 06:46:23;;;;;;;36.40;14.83;;;;;;;-0.98;81.69;100178.06;1719471;83;21586;-73
2023/11/21 06:48:52;;;;;;;31.93;13.90;;;;;;;-0.98;81.68;100174.03;1719487;83;21017;-74
2023/11/21 06:51:21;;;;;;;28.15;13.60;;;;;;;-0.94;81.73;100183.55;1719452;83;21482;-74
2023/11/21 06:53:51;;;;;;;30.60;13.08;;;;;;;-0.88;81.69;100180.34;1719464;82;21104;-73
2023/11/21 06:56:19;;;;;;;33.20;14.28;;;;;;;-0.87;81.61;100171.28;1719600;83;21509;-74
2023/11/21 06:58:49;;;;;;;29.18;13.05;;;;;;;-0.81;81.60;100165.87;1719637;82;21046;-73
2023/11/21 07:01:17;;;;;;;27.35;12.63;;;;;;;-0.76;81.42;100169.88;1719636;82;21028;-73
2023/11/21 07:03:46;;;;;;;27.55;11.60;;;;;;;-0.72;81.26;100169.13;1699556;83;21036;-74
2023/11/21 07:06:17;;;;;;;26.12;11.38;;;;;;;-0.67;81.05;100174.47;1719601;83;21037;-73
2023/11/21 07:08:47;;;;;;;27.58;11.78;;;;;;;-0.66;80.75;100168.59;1719589;83;21036;-73
2023/11/21 07:11:16;;;;;;;28.57;12.90;;;;;;;-0.64;80.57;100173.39;1719492;83;21057;-74
2023/11/21 07:13:45;;;;;;;27.70;12.90;;;;;;;-0.60;80.54;100179.36;1715847;82;21049;-74
2023/11/21 07:16:15;;;;;;;28.85;11.73;;;;;;;-0.55;80.45;100167.21;1715121;82;21069;-74
2023/11/21 07:18:45;;;;;;;24.70;12.33;;;;;;;-0.53;80.27;100171.12;1715114;84;21531;-73
2023/11/21 07:21:15;;;;;;;29.92;12.80;;;;;;;-0.52;80.18;100171.48;1714945;82;21053;-74
2023/11/21 07:23:45;;;;;;;24.72;11.83;;;;;;;-0.54;80.05;100166.23;1714905;84;21057;-73
2023/11/21 07:26:14;;;;;;;21.37;10.75;;;;;;;-0.52;80.09;100169.64;1714870;82;21009;-72
2023/11/21 07:28:43;;;;;;;29.95;11.95;;;;;;;-0.50;79.96;100173.05;1714881;82;21042;-73
2023/11/21 07:31:12;;;;;;;32.03;13.50;;;;;;;-0.49;79.87;100181.48;1714934;84;21045;-73
2023/11/21 07:33:41;;;;;;;26.75;10.68;;;;;;;-0.45;79.96;100180.23;1714864;82;21053;-74
2023/11/21 07:36:10;;;;;;;28.35;10.30;;;;;;;-0.40;79.92;100187.41;1714808;84;21049;-73
2023/11/21 07:38:40;;;;;;;20.68;9.80;;;;;;;-0.38;79.68;100179.20;1715134;84;21021;-73
2023/11/21 07:41:10;;;;;;;20.27;9.65;;;;;;;-0.38;79.50;100178.71;1715057;82;21089;-73
2023/11/21 07:43:43;;;;;;;18.73;9.50;;;;;;;-0.32;79.43;100178.67;1715284;82;21053;-74
2023/11/21 07:46:17;;;;;;;23.35;11.10;;;;;;;-0.29;79.17;100180.24;1714823;82;21092;-73
2023/11/21 07:48:43;;;;;;;33.48;12.85;;;;;;;-0.24;79.11;100179.34;1714480;83;21010;-73
2023/11/21 07:51:13;;;;;;;23.12;11.68;;;;;;;-0.15;79.19;100176.70;1715028;83;21018;-73
2023/11/21 07:53:42;;;;;;;20.95;10.18;;;;;;;-0.04;79.18;100181.99;1715074;82;21013;-72
2023/11/21 07:56:12;;;;;;;25.15;11.38;;;;;;;0.09;78.95;100185.83;1714933;82;21025;-73
2023/11/21 07:58:41;;;;;;;27.37;10.32;;;;;;;0.20;78.63;100190.27;1714813;82;21093;-73
2023/11/21 08:01:11;;;;;;;23.02;9.90;;;;;;;0.30;78.23;100193.84;1714844;82;21588;-75
2023/11/21 08:03:40;;;;;;;19.55;9.53;;;;;;;0.37;77.82;100187.41;1714878;82;21013;-73
2023/11/21 08:06:09;;;;;;;23.52;9.55;;;;;;;0.43;77.43;100188.20;1714998;82;21041;-73
2023/11/21 08:08:38;;;;;;;20.62;10.78;;;;;;;0.48;77.03;100192.68;1714998;82;21481;-74
2023/11/21 08:11:08;;;;;;;14.30;8.03;;;;;;;0.50;76.66;100194.25;1715008;82;21433;-72
2023/11/21 08:13:37;;;;;;;15.18;7.62;;;;;;;0.55;76.27;100188.44;1717721;82;21123;-74
2023/11/21 08:16:07;;;;;;;14.55;7.87;;;;;;;0.54;75.49;100192.98;1719481;82;21037;-73
2023/11/21 08:18:36;;;;;;;15.50;7.30;;;;;;;0.52;75.02;100197.66;1719670;83;21048;-73
2023/11/21 08:21:05;;;;;;;16.27;7.85;;;;;;;0.51;74.75;100201.84;1719478;83;21073;-74
2023/11/21 08:23:35;;;;;;;16.42;8.48;;;;;;;0.53;74.77;100206.59;1687411;85;21122;-73
2023/11/21 08:26:06;;;;;;;24.50;9.58;;;;;;;0.57;74.59;100218.31;1719398;82;21029;-74
2023/11/21 08:28:38;;;;;;;25.85;11.48;;;;;;;0.59;74.58;100213.63;1700091;83;21069;-73
2023/11/21 08:31:07;;;;;;;26.45;10.15;;;;;;;0.68;74.54;100212.48;1719609;83;21060;-74
2023/11/21 08:33:36;;;;;;;16.67;8.63;;;;;;;0.69;74.41;100213.69;1719498;83;21042;-73
2023/11/21 08:36:10;;;;;;;23.30;11.03;;;;;;;0.74;74.20;100220.86;1687304;84;21090;-73
2023/11/21 08:38:40;;;;;;;29.85;12.20;;;;;;;0.76;73.71;100208.59;1719705;82;21033;-74
2023/11/21 08:41:10;;;;;;;32.28;14.98;;;;;;;0.77;73.75;100208.45;1719677;82;21472;-75
2023/11/21 08:43:39;;;;;;;42.78;15.95;;;;;;;0.82;73.73;100208.88;1719552;83;21020;-74
2023/11/21 08:46:09;;;;;;;27.22;12.70;;;;;;;0.84;73.66;100205.55;1719430;83;21554;-75
2023/11/21 08:48:40;;;;;;;28.40;13.43;;;;;;;0.87;73.62;100208.45;1719393;82;21453;-74
2023/11/21 08:51:15;;;;;;;28.50;11.93;;;;;;;0.86;73.54;100200.86;1699804;83;21502;-74
2023/11/21 08:53:42;;;;;;;25.90;12.68;;;;;;;0.87;73.44;100207.11;1719536;82;21041;-74
2023/11/21 08:56:15;;;;;;;24.72;11.57;;;;;;;0.89;73.43;100203.28;1719524;83;20998;-75
2023/11/21 08:58:44;;;;;;;23.02;10.43;;;;;;;0.91;73.21;100209.87;1719455;82;21037;-73
2023/11/21 09:01:14;;;;;;;19.62;8.40;;;;;;;0.90;73.05;100206.33;1719534;82;21052;-73
2023/11/21 09:03:43;;;;;;;18.23;9.20;;;;;;;0.90;72.64;100208.17;1687235;85;21055;-74
2023/11/21 09:06:14;;;;;;;19.45;8.98;;;;;;;0.90;72.55;100202.78;1719268;83;21077;-79
2023/11/21 09:08:44;;;;;;;17.90;8.05;;;;;;;0.92;72.54;100206.19;1716228;83;21044;-73
2023/11/21 09:11:13;;;;;;;17.80;8.98;;;;;;;0.95;72.34;100209.95;1731638;80;21543;-74
2023/11/21 09:13:43;;;;;;;17.70;9.23;;;;;;;0.92;72.19;100206.19;1722412;82;21401;-73
2023/11/21 09:16:25;;;;;;;18.37;8.38;;;;;;;0.93;72.20;100211.44;1706135;83;21184;-73
2023/11/21 09:18:54;;;;;;;27.10;9.90;;;;;;;0.95;72.12;100207.26;1714722;82;21480;-82
2023/11/21 09:21:24;;;;;;;20.75;9.58;;;;;;;0.92;72.03;100203.00;1685897;85;21054;-75
2023/11/21 09:23:54;;;;;;;26.07;11.20;;;;;;;0.94;73.52;100203.70;1693062;84;21048;-73
2023/11/21 09:26:22;;;;;;;22.35;10.32;;;;;;;1.09;74.24;100199.23;1713186;84;21069;-74
2023/11/21 09:28:51;;;;;;;21.87;10.05;;;;;;;1.10;73.28;100196.89;1679692;85;21491;-75
2023/11/21 09:31:22;;;;;;;18.87;9.43;;;;;;;1.09;72.71;100194.69;1714888;83;21041;-72
2023/11/21 09:33:51;;;;;;;22.60;10.60;;;;;;;1.04;72.35;100210.95;1714667;84;21102;-74
2023/11/21 09:36:23;;;;;;;20.57;9.60;;;;;;;0.98;72.13;100202.93;1714616;82;21435;-74
2023/11/21 09:38:51;;;;;;;19.37;8.63;;;;;;;0.96;72.18;100199.52;1715033;84;21528;-74
2023/11/21 09:41:24;;;;;;;18.67;9.35;;;;;;;0.97;71.89;100200.38;1713968;83;21037;-74
2023/11/21 09:43:54;;;;;;;22.45;9.60;;;;;;;0.94;71.77;100197.46;1693736;84;21077;-73
2023/11/21 09:46:23;;;;;;;16.60;8.55;;;;;;;0.91;71.69;100198.59;1714767;83;21446;-75
2023/11/21 09:48:52;;;;;;;20.10;9.50;;;;;;;0.91;71.77;100190.50;1714580;82;21085;-75
2023/11/21 09:51:22;;;;;;;21.23;9.45;;;;;;;0.94;72.38;100190.22;1714858;84;21034;-72
2023/11/21 09:53:52;;;;;;;20.72;8.98;;;;;;;0.99;72.28;100179.00;1714719;84;21022;-74
2023/11/21 09:56:23;;;;;;;18.12;8.00;;;;;;;0.98;71.83;100176.45;1714799;84;21014;-74
2023/11/21 09:58:53;;;;;;;16.15;9.23;;;;;;;0.99;72.04;100179.50;1714851;84;21105;-74
2023/11/21 10:01:22;;;;;;;23.40;9.75;;;;;;;1.05;71.95;100180.28;1714681;83;21070;-76
2023/11/21 10:03:51;;;;;;;19.30;10.68;;;;;;;1.07;71.69;100173.75;1714908;84;20983;-74
2023/11/21 10:06:20;;;;;;;23.57;9.68;;;;;;;1.11;71.57;100181.06;1714620;82;21134;-73
2023/11/21 10:08:50;;;;;;;17.92;8.90;;;;;;;1.13;71.47;100177.23;1714925;83;21026;-74
2023/11/21 10:11:21;;;;;;;19.23;8.70;;;;;;;1.16;71.33;100180.13;1714184;83;21026;-73
2023/11/21 10:13:50;;;;;;;21.50;8.78;;;;;;;1.16;71.10;100185.53;1714646;83;21095;-74
2023/11/21 10:16:21;;;;;;;26.42;12.63;;;;;;;1.13;70.93;100179.92;1713641;84;21077;-73
2023/11/21 10:18:52;;;;;;;24.82;11.15;;;;;;;1.12;70.95;100180.06;1723783;81;21077;-75
2023/11/21 10:21:21;;;;;;;23.47;11.05;;;;;;;1.11;70.86;100170.27;1736612;82;21052;-74
2023/11/21 10:23:53;;;;;;;21.33;9.55;;;;;;;1.10;71.18;100186.10;1731564;83;21047;-74
2023/11/21 10:26:23;;;;;;;21.25;9.20;;;;;;;1.10;71.06;100188.80;1731418;81;21055;-74
2023/11/21 10:29:03;;;;;;;20.80;9.60;;;;;;;1.11;70.92;100187.80;1731516;82;21090;-75
2023/11/21 10:31:32;;;;;;;21.42;10.18;;;;;;;1.07;70.76;100179.64;1731558;82;21106;-72
2023/11/21 10:34:16;;;;;;;24.57;11.33;;;;;;;1.06;70.90;100179.29;1731491;83;21059;-71
2023/11/21 10:36:45;;;;;;;20.82;10.30;;;;;;;1.07;70.87;100174.25;1731436;82;21090;-73
2023/11/21 10:39:23;;;;;;;19.25;9.53;;;;;;;1.06;70.81;100176.59;1731505;82;21087;-75
2023/11/21 10:41:55;;;;;;;19.60;9.98;;;;;;;1.00;70.84;100183.91;1731523;83;21012;-74
2023/11/21 10:44:25;;;;;;;22.75;10.75;;;;;;;0.96;71.12;100186.03;1731361;82;21082;-72
2023/11/21 10:46:59;;;;;;;20.92;9.63;;;;;;;0.99;71.41;100180.85;1731553;83;21455;-75
2023/11/21 10:49:27;;;;;;;21.55;10.68;;;;;;;1.03;71.31;100185.82;1711692;83;21082;-75
2023/11/21 10:51:59;;;;;;;17.90;8.63;;;;;;;1.04;71.27;100181.28;1731476;83;21098;-73
2023/11/21 10:54:28;;;;;;;25.88;10.45;;;;;;;1.06;71.14;100186.03;1731336;83;21059;-74
2023/11/21 10:57:02;;;;;;;22.98;10.53;;;;;;;1.06;71.05;100179.29;1731506;83;21035;-74
2023/11/21 10:59:30;;;;;;;22.35;10.70;;;;;;;1.08;71.00;100186.74;1731321;83;21067;-74
2023/11/21 11:02:00;;;;;;;22.52;9.45;;;;;;;1.10;71.05;100187.45;1731403;82;21032;-73
2023/11/21 11:04:30;;;;;;;21.23;9.65;;;;;;;1.13;70.86;100198.81;1731740;81;21071;-74
2023/11/21 11:07:01;;;;;;;18.60;8.30;;;;;;;1.17;70.83;100205.63;1731565;83;21051;-75
2023/11/21 11:09:35;;;;;;;19.27;10.45;;;;;;;1.20;70.69;100209.89;1731358;83;21102;-74
2023/11/21 11:12:04;;;;;;;29.00;13.40;;;;;;;1.22;70.61;100207.90;1731000;83;21099;-71
2023/11/21 11:14:33;;;;;;;22.52;11.00;;;;;;;1.23;70.46;100211.80;1732014;82;21117;-74
2023/11/21 11:17:05;;;;;;;22.22;9.90;;;;;;;1.25;70.34;100211.66;1709416;84;21094;-73
2023/11/21 11:19:33;;;;;;;24.23;10.28;;;;;;;1.27;70.43;100211.02;1688109;84;21039;-76
2023/11/21 11:22:11;;;;;;;22.15;10.50;;;;;;;1.32;70.39;100203.88;1709006;83;21116;-74
2023/11/21 11:25:20;;;;;;;23.38;9.60;;;;;;;1.35;70.26;100208.98;1709030;83;21104;-71
2023/11/21 11:28:05;;;;;;;19.17;9.68;;;;;;;1.37;70.19;100205.15;1709386;83;21026;-74
2023/11/21 11:30:46;;;;;;;19.92;10.88;;;;;;;1.38;70.03;100208.70;1709319;83;21054;-74